Etusivu
METAR-TAF:

METAR-TAF

Lentoasemat :

Auburn, Alabama, Yhdysvallat

Leveyspiiri: 32-37N, Pituuspiiri: 085-26W, korkeus merenpinnasta: 236 m

Tämänhetkinen sää

Tämä raportti tehtiin 29 minuuttia sitten, kello 14.56 UTC
Tuuli 12 kn koillisesta
Lämpötila 16°C
Kosteus 94%
Ilmanpaine 1009 hPa
Näkyvyys: 9.7 km
Pilvistä 500 ft:n korkeudessa
sadetta, utua

METAR: KAUO 191456Z AUTO 05012KT 6SM RA BR OVC005 16/15 A2981 RMK AO2 CIG 003V008 SLP115 P0035 60046 T01560150 58008

Aika: 10:25 (15:25 UTC)


TAF: puuttuu

Säähavainnot ja -ennusteet yli 4000 lentoasemalta (METAR- ja TAF-raportit).

Käytössä olevat sääasemat on merkitty karttaan keltaisilla ja punaisilla pisteillä.

Aseta hiiri pisteen päälle nähdäksesi sääaseman nimen.

Klikkaa sitten nähdäksesi säähavainnot ja -ennusteet.

Kartan vaihtaminen: klikkaa mustalla rastilla varustettuja vihreitä pisteitä, niin voit zoomata sisään; viivalla varustettua vihreää pistettä, niin voit zoomata ulos tai vihreitä nuolia, niin pääset viereisille kartoille.


METAR-TAF: